createdAt,value
2022-11-16T00:02:13.109Z,12.07
2022-11-16T00:04:40.667Z,14.32
2022-11-16T00:07:08.481Z,10.80
2022-11-16T00:09:36.136Z,11.02
2022-11-16T00:12:07.298Z,13.38
2022-11-16T00:14:36.523Z,11.73
2022-11-16T00:17:04.948Z,11.95
2022-11-16T00:19:32.865Z,11.43
2022-11-16T00:22:00.443Z,12.68
2022-11-16T00:24:27.930Z,12.00
2022-11-16T00:26:56.368Z,12.05
2022-11-16T00:29:26.296Z,9.40
2022-11-16T00:31:54.703Z,11.25
2022-11-16T00:34:23.264Z,10.77
2022-11-16T00:36:51.161Z,11.68
2022-11-16T00:39:19.720Z,11.00
2022-11-16T00:41:48.327Z,11.45
2022-11-16T00:44:16.174Z,9.60
2022-11-16T00:46:43.847Z,8.77
2022-11-16T00:49:11.700Z,11.98
2022-11-16T00:51:39.523Z,11.40
2022-11-16T00:54:08.177Z,9.35
2022-11-16T00:56:36.385Z,9.93
2022-11-16T00:59:04.297Z,8.63
2022-11-16T01:01:31.930Z,10.02
2022-11-16T01:03:59.480Z,10.77
2022-11-16T01:06:26.961Z,10.35
2022-11-16T01:08:54.470Z,9.88
2022-11-16T01:11:41.819Z,9.38
2022-11-16T01:14:10.244Z,10.93
2022-11-16T01:16:38.140Z,10.27
2022-11-16T01:19:06.108Z,11.20
2022-11-16T01:21:34.737Z,10.68
2022-11-16T01:24:02.248Z,10.27
2022-11-16T01:26:29.789Z,11.82
2022-11-16T01:28:59.783Z,12.48
2022-11-16T01:31:27.290Z,10.93
2022-11-16T01:33:55.850Z,12.65
2022-11-16T01:36:23.643Z,12.20
2022-11-16T01:38:51.129Z,11.23
2022-11-16T01:41:24.790Z,9.63
2022-11-16T01:43:54.693Z,12.18
2022-11-16T01:46:22.759Z,12.40
2022-11-16T01:48:55.498Z,10.02
2022-11-16T01:51:24.075Z,10.73
2022-11-16T01:53:52.102Z,12.35
2022-11-16T01:56:19.756Z,11.25
2022-11-16T01:58:47.760Z,12.85
2022-11-16T02:01:15.401Z,11.73
2022-11-16T02:03:42.905Z,11.80
2022-11-16T02:06:31.566Z,11.30
2022-11-16T02:09:36.136Z,12.57
2022-11-16T02:12:41.845Z,12.65
2022-11-16T02:15:38.496Z,13.35
2022-11-16T02:18:34.885Z,12.35
2022-11-16T02:21:12.551Z,10.93
2022-11-16T02:24:01.279Z,11.65
2022-11-16T02:27:06.187Z,11.77
2022-11-16T02:29:38.429Z,11.63
2022-11-16T02:32:21.455Z,10.90
2022-11-16T02:35:08.510Z,13.82
2022-11-16T02:37:40.775Z,13.70
2022-11-16T02:43:03.173Z,13.25
2022-11-16T02:45:36.367Z,15.65
2022-11-16T02:48:15.347Z,12.60
2022-11-16T02:50:44.824Z,15.10
2022-11-16T02:53:12.347Z,14.73
2022-11-16T02:55:39.806Z,16.67
2022-11-16T02:58:10.678Z,15.10
2022-11-16T03:00:49.941Z,13.40
2022-11-16T03:03:29.960Z,18.38
2022-11-16T03:06:04.969Z,13.20
2022-11-16T03:08:37.141Z,17.65
2022-11-16T03:11:27.259Z,14.85
2022-11-16T03:13:59.905Z,17.13
2022-11-16T03:16:37.834Z,17.88
2022-11-16T03:19:11.444Z,13.95
2022-11-16T03:21:42.556Z,13.30
2022-11-16T03:24:10.536Z,14.63
2022-11-16T03:26:54.401Z,17.05
2022-11-16T03:29:30.349Z,13.35
2022-11-16T03:32:04.080Z,11.75
2022-11-16T03:34:36.179Z,12.07
2022-11-16T03:37:05.045Z,15.40
2022-11-16T03:39:36.701Z,14.20
2022-11-16T03:42:13.929Z,11.77
2022-11-16T03:44:43.245Z,10.95
2022-11-16T03:47:10.736Z,9.60
2022-11-16T03:49:38.205Z,9.18
2022-11-16T03:52:06.405Z,9.18
2022-11-16T03:54:33.952Z,9.90
2022-11-16T03:57:01.576Z,7.78
2022-11-16T03:59:29.017Z,10.43
2022-11-16T04:01:56.477Z,9.40
2022-11-16T04:04:41.428Z,8.10
2022-11-16T04:07:28.021Z,14.82
2022-11-16T04:10:12.990Z,7.97
2022-11-16T04:13:02.362Z,10.80
2022-11-16T04:15:47.342Z,9.80
2022-11-16T04:18:32.452Z,10.77
2022-11-16T04:21:17.804Z,9.05
2022-11-16T04:24:04.517Z,5.90
2022-11-16T04:26:46.081Z,11.13
2022-11-16T04:29:14.861Z,6.00
2022-11-16T04:31:59.945Z,8.65
2022-11-16T04:34:45.228Z,6.22
2022-11-16T04:37:32.882Z,9.43
2022-11-16T04:40:00.338Z,9.40
2022-11-16T04:42:27.799Z,9.02
2022-11-16T04:45:12.757Z,9.20
2022-11-16T04:47:40.307Z,6.70
2022-11-16T04:50:08.241Z,8.20
2022-11-16T04:52:35.723Z,10.30
2022-11-16T04:55:03.367Z,9.02
2022-11-16T04:57:30.812Z,11.63
2022-11-16T04:59:58.319Z,9.27
2022-11-16T05:02:25.813Z,11.02
2022-11-16T05:04:53.277Z,12.90
2022-11-16T05:07:20.874Z,10.52
2022-11-16T05:09:49.693Z,11.48
2022-11-16T05:12:18.300Z,11.80
2022-11-16T05:14:46.795Z,10.15
2022-11-16T05:17:15.519Z,13.82
2022-11-16T05:20:00.600Z,12.27
2022-11-16T05:22:28.076Z,8.15
2022-11-16T05:24:55.714Z,15.38
2022-11-16T05:27:25.224Z,15.10
2022-11-16T05:29:52.773Z,11.73
2022-11-16T05:32:21.556Z,12.35
2022-11-16T05:34:49.625Z,10.32
2022-11-16T05:37:19.081Z,17.52
2022-11-16T05:39:46.525Z,18.10
2022-11-16T05:42:14.131Z,10.48
2022-11-16T05:44:41.582Z,12.48
2022-11-16T05:47:09.062Z,10.55
2022-11-16T05:49:36.536Z,14.02
2022-11-16T05:52:04.150Z,12.70
2022-11-16T05:54:31.678Z,12.50
2022-11-16T05:56:59.206Z,16.92
2022-11-16T05:59:27.707Z,14.32
2022-11-16T06:01:55.204Z,15.48
2022-11-16T06:04:24.345Z,10.73
2022-11-16T06:06:52.385Z,17.92
2022-11-16T06:09:20.076Z,14.98
2022-11-16T06:11:47.592Z,12.63
2022-11-16T06:14:15.102Z,13.23
2022-11-16T06:16:42.628Z,12.50
2022-11-16T06:19:10.101Z,10.90
2022-11-16T06:21:37.547Z,11.45
2022-11-16T06:24:08.886Z,9.27
2022-11-16T06:26:37.329Z,13.37
2022-11-16T06:29:05.315Z,15.52
2022-11-16T06:31:33.121Z,10.13
2022-11-16T06:34:00.682Z,14.43
2022-11-16T06:36:28.191Z,10.60
2022-11-16T06:38:55.662Z,17.10
2022-11-16T06:41:23.314Z,13.70
2022-11-16T06:43:50.784Z,13.73
2022-11-16T06:46:18.324Z,14.60
2022-11-16T06:48:45.828Z,12.70
2022-11-16T06:51:13.302Z,11.23
2022-11-16T06:53:40.821Z,18.40
2022-11-16T06:56:08.771Z,16.27
2022-11-16T06:58:36.643Z,16.38
2022-11-16T07:01:09.356Z,15.10
2022-11-16T07:06:09.002Z,13.65
2022-11-16T07:08:36.785Z,12.93
2022-11-16T07:11:08.662Z,14.40
2022-11-16T07:13:37.961Z,15.60
2022-11-16T07:16:07.098Z,13.73
2022-11-16T07:18:36.773Z,16.88
2022-11-16T07:21:13.335Z,14.32
2022-11-16T07:23:41.086Z,17.75
2022-11-16T07:26:09.559Z,13.18
2022-11-16T07:28:37.893Z,13.15
2022-11-16T07:31:09.342Z,11.80
2022-11-16T07:33:37.481Z,15.63
2022-11-16T07:36:16.644Z,8.88
2022-11-16T07:38:44.297Z,12.35
2022-11-16T07:41:16.714Z,9.38
2022-11-16T07:46:45.958Z,14.85
2022-11-16T07:49:11.497Z,10.88
2022-11-16T07:51:39.461Z,10.10
2022-11-16T07:54:07.217Z,9.60
2022-11-16T07:56:34.749Z,7.95
2022-11-16T07:59:02.389Z,11.55
2022-11-16T08:01:30.031Z,8.00
2022-11-16T08:03:57.588Z,11.45
2022-11-16T08:06:27.108Z,7.50
2022-11-16T08:08:58.290Z,7.15
2022-11-16T08:11:26.903Z,10.57
2022-11-16T08:13:54.603Z,10.55
2022-11-16T08:16:23.780Z,10.65
2022-11-16T08:18:51.664Z,9.85
2022-11-16T08:21:19.982Z,8.73
2022-11-16T08:23:47.853Z,8.57
2022-11-16T08:26:22.025Z,11.15
2022-11-16T08:28:53.652Z,11.25
2022-11-16T08:31:24.007Z,12.57
2022-11-16T08:33:51.989Z,16.27
2022-11-16T08:36:20.116Z,7.40
2022-11-16T08:38:49.393Z,11.77
2022-11-16T08:41:18.140Z,11.13
2022-11-16T08:43:47.150Z,26.83
2022-11-16T08:46:15.736Z,8.00
2022-11-16T08:48:43.382Z,14.63
2022-11-16T08:51:18.437Z,7.45
2022-11-16T08:53:48.384Z,9.30
2022-11-16T08:56:17.954Z,15.15
2022-11-16T08:58:47.139Z,6.30
2022-11-16T09:01:19.861Z,7.93
2022-11-16T09:03:47.862Z,10.43
2022-11-16T09:06:15.815Z,12.00
2022-11-16T09:08:45.886Z,7.90
2022-11-16T09:11:16.741Z,9.00
2022-11-16T09:13:45.659Z,9.13
2022-11-16T09:16:15.819Z,12.25
2022-11-16T09:18:45.566Z,9.38
2022-11-16T09:21:13.074Z,20.33
2022-11-16T09:23:40.530Z,8.40
2022-11-16T09:26:08.091Z,6.32
2022-11-16T09:28:35.809Z,9.52
2022-11-16T09:31:06.095Z,9.43
2022-11-16T09:33:35.373Z,6.97
2022-11-16T09:36:07.137Z,10.23
2022-11-16T09:39:13.970Z,9.52
2022-11-16T09:42:08.249Z,7.40
2022-11-16T09:44:57.455Z,9.63
2022-11-16T09:47:35.481Z,7.10
2022-11-16T09:50:06.297Z,11.25
2022-11-16T09:52:45.872Z,8.13
2022-11-16T09:55:37.767Z,8.73
2022-11-16T09:58:13.829Z,9.32
2022-11-16T10:00:48.029Z,7.50
2022-11-16T10:03:16.338Z,7.47
2022-11-16T10:06:02.819Z,13.32
2022-11-16T10:08:43.920Z,9.52
2022-11-16T10:11:31.468Z,5.93
2022-11-16T10:14:23.199Z,9.30
2022-11-16T10:16:55.405Z,9.50
2022-11-16T10:22:32.179Z,6.30
2022-11-16T10:25:02.741Z,5.07
2022-11-16T10:27:48.793Z,7.80
2022-11-16T10:30:22.090Z,2.80
2022-11-16T10:33:06.693Z,4.78
2022-11-16T10:35:46.874Z,6.80
2022-11-16T10:38:17.025Z,11.63
2022-11-16T10:40:48.550Z,8.13
2022-11-16T10:43:19.076Z,6.93
2022-11-16T10:45:52.815Z,7.78
2022-11-16T10:48:46.616Z,3.42
2022-11-16T10:51:14.099Z,5.38
2022-11-16T10:53:43.800Z,6.80
2022-11-16T10:56:37.303Z,9.70
2022-11-16T10:59:07.439Z,8.55
2022-11-16T11:01:42.292Z,9.75
2022-11-16T11:04:29.959Z,4.50
2022-11-16T11:07:02.825Z,4.35
2022-11-16T11:09:41.706Z,7.85
2022-11-16T11:12:39.353Z,5.30
2022-11-16T11:15:13.349Z,8.82
2022-11-16T11:17:43.911Z,11.38
2022-11-16T11:20:17.699Z,9.35
2022-11-16T11:23:25.925Z,7.75
2022-11-16T11:26:01.263Z,5.25
2022-11-16T11:28:31.903Z,11.43
2022-11-16T11:31:03.780Z,9.07
2022-11-16T11:33:36.513Z,4.22
2022-11-16T11:36:21.519Z,7.15
2022-11-16T11:39:13.491Z,4.25
2022-11-16T11:41:43.761Z,8.70
2022-11-16T11:44:14.315Z,9.50
2022-11-16T11:47:35.291Z,9.65
2022-11-16T11:49:49.825Z,11.38
2022-11-16T11:52:43.608Z,5.68
2022-11-16T11:55:18.569Z,9.32
2022-11-16T11:57:48.757Z,11.05
2022-11-16T12:00:18.111Z,5.18
2022-11-16T12:03:10.086Z,8.43
2022-11-16T12:05:56.726Z,11.60
2022-11-16T12:08:54.657Z,4.15
2022-11-16T12:11:28.205Z,9.63
2022-11-16T12:14:26.166Z,12.77
2022-11-16T12:17:18.621Z,8.73
2022-11-16T12:20:29.088Z,5.35
2022-11-16T12:23:08.684Z,7.50
2022-11-16T12:26:12.755Z,3.25
2022-11-16T12:28:58.993Z,5.22
2022-11-16T12:31:54.853Z,7.25
2022-11-16T12:34:53.362Z,12.70
2022-11-16T12:37:42.190Z,5.75
2022-11-16T12:40:34.572Z,3.83
2022-11-16T12:43:20.811Z,3.42
2022-11-16T12:46:02.093Z,3.95
2022-11-16T12:48:54.061Z,4.95
2022-11-16T12:51:37.890Z,5.70
2022-11-16T12:54:32.628Z,4.25
2022-11-16T12:57:05.893Z,6.05
2022-11-16T12:59:51.169Z,5.28
2022-11-16T13:02:39.916Z,5.07
2022-11-16T13:05:18.090Z,8.73
2022-11-16T13:07:49.982Z,6.10
2022-11-16T13:10:22.199Z,6.20
2022-11-16T13:13:09.006Z,3.65
2022-11-16T13:15:46.199Z,6.35
2022-11-16T13:18:18.209Z,6.00
2022-11-16T13:20:51.893Z,7.47
2022-11-16T13:23:38.385Z,5.38
2022-11-16T13:26:24.013Z,8.00
2022-11-16T13:29:26.820Z,4.93
2022-11-16T13:34:32.491Z,3.17
2022-11-16T13:36:59.937Z,8.35
2022-11-16T13:39:59.624Z,4.35
2022-11-16T13:42:27.835Z,6.63
2022-11-16T13:45:08.203Z,3.72
2022-11-16T13:47:36.656Z,5.22
2022-11-16T13:50:08.084Z,8.90
2022-11-16T13:53:36.547Z,6.68
2022-11-16T13:55:34.774Z,11.25
2022-11-16T13:58:05.373Z,5.93
2022-11-16T14:00:33.378Z,7.15
2022-11-16T14:03:13.186Z,8.65
2022-11-16T14:05:49.257Z,5.88
2022-11-16T14:08:25.516Z,7.05
2022-11-16T14:10:52.955Z,8.50
2022-11-16T14:13:45.583Z,8.18
2022-11-16T14:18:45.558Z,3.75
2022-11-16T14:21:16.309Z,5.97
2022-11-16T14:24:01.982Z,6.78
2022-11-16T14:26:43.350Z,5.85
2022-11-16T14:29:23.259Z,10.82
2022-11-16T14:31:56.799Z,5.63
2022-11-16T14:34:49.795Z,5.40
2022-11-16T14:37:24.373Z,3.05
2022-11-16T14:39:58.384Z,6.53
2022-11-16T14:42:38.201Z,6.60
2022-11-16T14:45:25.733Z,9.73
2022-11-16T14:48:00.049Z,6.30
2022-11-16T14:50:30.151Z,3.35
2022-11-16T14:53:02.824Z,5.70
2022-11-16T14:55:30.705Z,5.85
2022-11-16T14:58:24.639Z,7.20
2022-11-16T15:01:02.312Z,5.80
2022-11-16T15:03:34.768Z,9.00
2022-11-16T15:06:04.891Z,7.38
2022-11-16T15:08:36.400Z,5.75
2022-11-16T15:11:03.945Z,4.60
2022-11-16T15:13:31.709Z,7.70
2022-11-16T15:16:19.956Z,7.50
2022-11-16T15:18:58.275Z,9.38
2022-11-16T15:21:26.123Z,5.88
2022-11-16T15:24:23.352Z,5.93
2022-11-16T15:26:41.124Z,3.40
2022-11-16T15:29:21.481Z,7.75
2022-11-16T15:31:50.028Z,6.70
2022-11-16T15:34:19.558Z,3.17
2022-11-16T15:36:47.930Z,4.00
2022-11-16T15:39:21.471Z,7.50
2022-11-16T15:41:50.011Z,8.05
2022-11-16T15:44:21.019Z,6.78
2022-11-16T15:46:52.735Z,3.55
2022-11-16T15:49:41.900Z,7.15
2022-11-16T15:52:10.355Z,6.63
2022-11-16T15:54:52.548Z,5.68
2022-11-16T15:57:21.926Z,12.18
2022-11-16T15:59:51.618Z,13.38
2022-11-16T16:02:21.445Z,23.02
2022-11-16T16:04:48.984Z,11.30
2022-11-16T16:07:44.825Z,14.60
2022-11-16T16:10:21.579Z,14.73
2022-11-16T16:12:52.264Z,9.07
2022-11-16T16:15:36.803Z,4.15
2022-11-16T16:18:12.501Z,11.98
2022-11-16T16:20:40.078Z,7.60
2022-11-16T16:23:15.200Z,13.35
2022-11-16T16:25:47.520Z,8.13
2022-11-16T16:28:17.689Z,8.07
2022-11-16T16:30:45.232Z,6.95
2022-11-16T16:33:19.622Z,6.85
2022-11-16T16:35:49.765Z,21.02
2022-11-16T16:38:17.347Z,12.45
2022-11-16T16:40:44.886Z,16.88
2022-11-16T16:43:12.412Z,14.40
2022-11-16T16:45:43.448Z,16.77
2022-11-16T16:48:12.620Z,16.75
2022-11-16T16:50:41.015Z,18.02
2022-11-16T16:53:13.169Z,15.15
2022-11-16T16:55:40.920Z,9.55
2022-11-16T16:58:08.509Z,13.10
2022-11-16T17:00:36.054Z,10.75
2022-11-16T17:03:03.523Z,20.83
2022-11-16T17:05:33.840Z,5.75
2022-11-16T17:08:02.192Z,10.35
2022-11-16T17:10:29.672Z,13.30
2022-11-16T17:12:58.264Z,13.25
2022-11-16T17:15:26.227Z,7.38
2022-11-16T17:17:53.796Z,7.15
2022-11-16T17:20:21.314Z,16.13
2022-11-16T17:22:48.784Z,9.27
2022-11-16T17:25:16.289Z,11.77
2022-11-16T17:27:43.747Z,12.18
2022-11-16T17:30:11.974Z,18.83
2022-11-16T17:32:39.460Z,20.30
2022-11-16T17:35:07.118Z,9.25
2022-11-16T17:37:34.558Z,16.10
2022-11-16T17:40:02.048Z,6.38
2022-11-16T17:42:29.498Z,12.63
2022-11-16T17:44:56.948Z,9.68
2022-11-16T17:47:24.402Z,9.75
2022-11-16T17:49:51.893Z,11.25
2022-11-16T17:52:19.375Z,10.98
2022-11-16T17:54:46.817Z,8.00
2022-11-16T17:57:14.312Z,6.25
2022-11-16T17:59:41.878Z,7.80
2022-11-16T18:02:12.393Z,15.40
2022-11-16T18:04:39.965Z,16.85
2022-11-16T18:07:07.480Z,14.63
2022-11-16T18:09:35.150Z,7.22
2022-11-16T18:12:02.700Z,12.80
2022-11-16T18:14:31.282Z,9.02
2022-11-16T18:16:58.769Z,5.30
2022-11-16T18:19:26.260Z,15.95
2022-11-16T18:21:53.670Z,11.38
2022-11-16T18:24:21.100Z,6.80
2022-11-16T18:26:48.530Z,2.85
2022-11-16T18:29:18.590Z,8.68
2022-11-16T18:31:46.046Z,4.47
2022-11-16T18:34:15.245Z,9.30
2022-11-16T18:36:42.722Z,6.57
2022-11-16T18:39:10.197Z,7.97
2022-11-16T18:41:38.229Z,11.02
2022-11-16T18:44:06.209Z,5.53
2022-11-16T18:46:34.098Z,6.00
2022-11-16T18:49:01.679Z,6.07
2022-11-16T18:51:30.005Z,9.35
2022-11-16T18:53:57.705Z,9.13
2022-11-16T18:56:25.719Z,7.65
2022-11-16T18:58:53.793Z,6.85
2022-11-16T19:01:24.504Z,9.30
2022-11-16T19:03:53.752Z,6.88
2022-11-16T19:06:22.189Z,7.22
2022-11-16T19:08:56.318Z,5.63
2022-11-16T19:11:24.893Z,10.70
2022-11-16T19:13:59.963Z,4.85
2022-11-16T19:16:27.819Z,6.70
2022-11-16T19:18:55.259Z,8.27
2022-11-16T19:21:23.303Z,3.85
2022-11-16T19:23:55.546Z,6.40
2022-11-16T19:26:25.798Z,7.13
2022-11-16T19:28:54.592Z,4.95
2022-11-16T19:31:30.241Z,6.75
2022-11-16T19:34:00.178Z,6.50
2022-11-16T19:36:28.991Z,5.80
2022-11-16T19:38:56.935Z,7.38
2022-11-16T19:41:25.598Z,6.75
2022-11-16T19:43:57.208Z,4.22
2022-11-16T19:46:25.389Z,4.05
2022-11-16T19:48:53.662Z,3.75
2022-11-16T19:51:26.632Z,5.47
2022-11-16T19:53:54.716Z,5.25
2022-11-16T19:56:23.992Z,6.90
2022-11-16T19:58:52.390Z,4.15
2022-11-16T20:01:29.257Z,3.22
2022-11-16T20:04:02.151Z,2.80
2022-11-16T20:06:32.394Z,6.55
2022-11-16T20:09:03.888Z,4.45
2022-11-16T20:11:33.792Z,5.13
2022-11-16T20:14:02.505Z,6.35
2022-11-16T20:16:38.328Z,4.50
2022-11-16T20:19:08.163Z,2.95
2022-11-16T20:21:40.570Z,4.18
2022-11-16T20:26:41.385Z,5.18
2022-11-16T20:29:12.262Z,3.85
2022-11-16T20:31:42.497Z,2.70
2022-11-16T20:34:14.744Z,3.63
2022-11-16T20:36:44.397Z,6.03
2022-11-16T20:39:22.076Z,10.63
2022-11-16T20:41:49.730Z,7.10
2022-11-16T20:44:21.138Z,3.00
2022-11-16T20:46:50.532Z,4.77
2022-11-16T20:49:18.069Z,5.28
2022-11-16T20:51:47.630Z,4.65
2022-11-16T20:54:15.400Z,8.02
2022-11-16T20:56:44.389Z,4.60
2022-11-16T20:59:11.870Z,4.00
2022-11-16T21:01:41.488Z,5.80
2022-11-16T21:04:10.798Z,4.53
2022-11-16T21:06:38.363Z,4.38
2022-11-16T21:09:05.910Z,4.20
2022-11-16T21:11:54.773Z,8.80
2022-11-16T21:14:22.613Z,5.75
2022-11-16T21:16:50.308Z,3.50
2022-11-16T21:19:17.928Z,6.18
2022-11-16T21:21:45.421Z,3.95
2022-11-16T21:24:12.956Z,2.53
2022-11-16T21:26:40.515Z,2.85
2022-11-16T21:29:08.049Z,3.58
2022-11-16T21:31:37.318Z,4.18
2022-11-16T21:34:05.819Z,3.30
2022-11-16T21:36:33.856Z,2.42
2022-11-16T21:39:01.506Z,4.15
2022-11-16T21:41:29.318Z,8.95
2022-11-16T21:43:57.230Z,1.20
2022-11-16T21:46:26.443Z,8.68
2022-11-16T21:48:56.396Z,5.65
2022-11-16T21:51:27.352Z,3.58
2022-11-16T21:53:55.267Z,8.02
2022-11-16T21:56:25.088Z,1.92
2022-11-16T21:58:53.772Z,4.82
2022-11-16T22:01:22.156Z,4.20
2022-11-16T22:04:10.458Z,4.10
2022-11-16T22:06:55.390Z,5.00
2022-11-16T22:09:23.094Z,5.15
2022-11-16T22:11:50.573Z,6.70
2022-11-16T22:14:18.076Z,9.57
2022-11-16T22:16:45.672Z,3.63
2022-11-16T22:19:13.215Z,2.50
2022-11-16T22:21:40.682Z,7.28
2022-11-16T22:24:08.510Z,2.45
2022-11-16T22:26:37.906Z,1.88
2022-11-16T22:29:05.417Z,5.82
2022-11-16T22:31:32.999Z,2.95
2022-11-16T22:34:00.494Z,8.10
2022-11-16T22:36:27.958Z,3.58
2022-11-16T22:38:57.043Z,1.13
2022-11-16T22:41:24.548Z,3.85
2022-11-16T22:43:52.042Z,5.10
2022-11-16T22:46:19.547Z,6.15
2022-11-16T22:48:47.852Z,3.65
2022-11-16T22:51:22.584Z,5.63
2022-11-16T22:54:00.576Z,6.03
2022-11-16T22:56:29.781Z,7.97
2022-11-16T22:58:57.606Z,6.47
2022-11-16T23:01:25.745Z,3.80
2022-11-16T23:03:53.321Z,6.55
2022-11-16T23:06:21.275Z,4.05
2022-11-16T23:08:49.374Z,4.85
2022-11-16T23:11:37.125Z,9.77
2022-11-16T23:14:22.777Z,2.35
2022-11-16T23:16:51.009Z,3.58
2022-11-16T23:19:37.995Z,5.93
2022-11-16T23:22:24.385Z,5.68
2022-11-16T23:25:09.792Z,4.68
2022-11-16T23:27:56.166Z,4.82
2022-11-16T23:30:24.305Z,9.15
2022-11-16T23:32:52.331Z,11.98
2022-11-16T23:35:20.023Z,5.13
2022-11-16T23:37:54.486Z,6.18
2022-11-16T23:40:24.427Z,8.23
2022-11-16T23:43:07.406Z,4.80
2022-11-16T23:45:35.001Z,1.83
2022-11-16T23:48:02.550Z,5.57
2022-11-16T23:50:30.075Z,5.53
2022-11-16T23:52:57.546Z,8.40
2022-11-16T23:55:25.035Z,5.57
2022-11-16T23:57:52.509Z,4.28
